sensor_id;sensor_type;location;lat;lon;timestamp;P1;durP1;ratioP1;P2;durP2;ratioP2
24301;SDS011;12421;49.732;20.078;2022-09-29T00:03:48;7.28;;;1.95;;
24301;SDS011;12421;49.732;20.078;2022-09-29T00:13:50;3.92;;;1.25;;
24301;SDS011;12421;49.732;20.078;2022-09-29T00:23:54;1.60;;;0.78;;
24301;SDS011;12421;49.732;20.078;2022-09-29T00:33:57;3.83;;;0.78;;
24301;SDS011;12421;49.732;20.078;2022-09-29T00:44:00;2.47;;;1.30;;
24301;SDS011;12421;49.732;20.078;2022-09-29T00:54:09;2.52;;;0.98;;
24301;SDS011;12421;49.732;20.078;2022-09-29T01:04:13;2.22;;;1.05;;
24301;SDS011;12421;49.732;20.078;2022-09-29T01:14:18;2.42;;;1.30;;
24301;SDS011;12421;49.732;20.078;2022-09-29T01:45:09;6.25;;;1.40;;
24301;SDS011;12421;49.732;20.078;2022-09-29T01:55:19;5.17;;;1.82;;
24301;SDS011;12421;49.732;20.078;2022-09-29T02:05:27;2.47;;;1.22;;
24301;SDS011;12421;49.732;20.078;2022-09-29T02:15:47;2.27;;;1.10;;
24301;SDS011;12421;49.732;20.078;2022-09-29T02:25:53;1.90;;;1.07;;
24301;SDS011;12421;49.732;20.078;2022-09-29T02:36:05;2.37;;;1.00;;
24301;SDS011;12421;49.732;20.078;2022-09-29T02:56:59;3.87;;;1.20;;
24301;SDS011;12421;49.732;20.078;2022-09-29T03:07:17;5.60;;;1.20;;
24301;SDS011;12421;49.732;20.078;2022-09-29T03:17:20;2.55;;;1.15;;
24301;SDS011;12421;49.732;20.078;2022-09-29T03:27:22;1.65;;;0.98;;
24301;SDS011;12421;49.732;20.078;2022-09-29T03:37:24;4.03;;;1.50;;
24301;SDS011;12421;49.732;20.078;2022-09-29T03:47:26;2.55;;;1.22;;
24301;SDS011;12421;49.732;20.078;2022-09-29T03:57:29;4.08;;;1.47;;
24301;SDS011;12421;49.732;20.078;2022-09-29T04:07:31;3.47;;;1.52;;
24301;SDS011;12421;49.732;20.078;2022-09-29T04:17:33;2.70;;;1.40;;
24301;SDS011;12421;49.732;20.078;2022-09-29T04:27:35;2.37;;;1.10;;
24301;SDS011;12421;49.732;20.078;2022-09-29T04:37:38;3.90;;;1.42;;
24301;SDS011;12421;49.732;20.078;2022-09-29T04:47:40;2.65;;;1.30;;
24301;SDS011;12421;49.732;20.078;2022-09-29T04:57:42;3.22;;;1.50;;
24301;SDS011;12421;49.732;20.078;2022-09-29T05:07:44;7.75;;;1.60;;
24301;SDS011;12421;49.732;20.078;2022-09-29T05:17:48;2.98;;;1.75;;
24301;SDS011;12421;49.732;20.078;2022-09-29T05:27:50;4.22;;;2.50;;
24301;SDS011;12421;49.732;20.078;2022-09-29T05:37:52;7.80;;;4.50;;
24301;SDS011;12421;49.732;20.078;2022-09-29T05:47:54;5.95;;;2.72;;
24301;SDS011;12421;49.732;20.078;2022-09-29T05:57:57;4.05;;;2.35;;
24301;SDS011;12421;49.732;20.078;2022-09-29T06:08:00;3.55;;;2.00;;
24301;SDS011;12421;49.732;20.078;2022-09-29T06:18:04;4.92;;;2.08;;
24301;SDS011;12421;49.732;20.078;2022-09-29T06:28:06;3.58;;;1.80;;
24301;SDS011;12421;49.732;20.078;2022-09-29T06:38:08;5.58;;;2.00;;
24301;SDS011;12421;49.732;20.078;2022-09-29T06:48:11;3.20;;;2.17;;
24301;SDS011;12421;49.732;20.078;2022-09-29T06:58:14;2.60;;;1.55;;
24301;SDS011;12421;49.732;20.078;2022-09-29T07:08:16;2.87;;;1.70;;
24301;SDS011;12421;49.732;20.078;2022-09-29T07:18:18;3.62;;;1.77;;
24301;SDS011;12421;49.732;20.078;2022-09-29T07:28:21;2.85;;;1.05;;
24301;SDS011;12421;49.732;20.078;2022-09-29T07:38:24;3.80;;;2.00;;
24301;SDS011;12421;49.732;20.078;2022-09-29T07:48:27;2.67;;;1.37;;
24301;SDS011;12421;49.732;20.078;2022-09-29T07:58:31;2.85;;;1.60;;
24301;SDS011;12421;49.732;20.078;2022-09-29T08:08:38;4.00;;;2.20;;
24301;SDS011;12421;49.732;20.078;2022-09-29T08:28:44;3.00;;;1.32;;
24301;SDS011;12421;49.732;20.078;2022-09-29T08:38:50;2.30;;;1.20;;
24301;SDS011;12421;49.732;20.078;2022-09-29T08:48:54;3.30;;;1.90;;
24301;SDS011;12421;49.732;20.078;2022-09-29T08:59:00;3.47;;;2.12;;
24301;SDS011;12421;49.732;20.078;2022-09-29T09:30:14;4.08;;;1.62;;
24301;SDS011;12421;49.732;20.078;2022-09-29T09:50:29;3.05;;;1.40;;
24301;SDS011;12421;49.732;20.078;2022-09-29T10:00:34;2.40;;;1.00;;
24301;SDS011;12421;49.732;20.078;2022-09-29T10:10:40;1.72;;;0.60;;
24301;SDS011;12421;49.732;20.078;2022-09-29T10:20:43;1.45;;;0.60;;
24301;SDS011;12421;49.732;20.078;2022-09-29T10:30:45;2.67;;;0.60;;
24301;SDS011;12421;49.732;20.078;2022-09-29T10:41:04;1.45;;;0.50;;
24301;SDS011;12421;49.732;20.078;2022-09-29T10:51:13;1.30;;;0.42;;
24301;SDS011;12421;49.732;20.078;2022-09-29T11:01:15;1.52;;;0.57;;
24301;SDS011;12421;49.732;20.078;2022-09-29T11:42:32;6.15;;;0.60;;
24301;SDS011;12421;49.732;20.078;2022-09-29T12:03:32;2.05;;;0.90;;
24301;SDS011;12421;49.732;20.078;2022-09-29T12:23:57;2.90;;;1.30;;
24301;SDS011;12421;49.732;20.078;2022-09-29T12:34:11;3.20;;;1.15;;
24301;SDS011;12421;49.732;20.078;2022-09-29T12:44:14;1.57;;;0.90;;
24301;SDS011;12421;49.732;20.078;2022-09-29T13:36:25;3.40;;;1.50;;
24301;SDS011;12421;49.732;20.078;2022-09-29T13:46:37;4.50;;;2.77;;
24301;SDS011;12421;49.732;20.078;2022-09-29T13:56:40;4.07;;;1.50;;
24301;SDS011;12421;49.732;20.078;2022-09-29T14:06:45;4.70;;;2.37;;
24301;SDS011;12421;49.732;20.078;2022-09-29T14:17:02;10.90;;;5.97;;
24301;SDS011;12421;49.732;20.078;2022-09-29T14:47:59;3.70;;;1.67;;
24301;SDS011;12421;49.732;20.078;2022-09-29T14:58:35;3.75;;;1.60;;
24301;SDS011;12421;49.732;20.078;2022-09-29T15:08:58;5.12;;;2.10;;
24301;SDS011;12421;49.732;20.078;2022-09-29T15:29:53;6.72;;;3.45;;
24301;SDS011;12421;49.732;20.078;2022-09-29T15:39:57;6.70;;;2.90;;
24301;SDS011;12421;49.732;20.078;2022-09-29T15:50:05;9.00;;;5.10;;
24301;SDS011;12421;49.732;20.078;2022-09-29T16:10:35;6.22;;;4.28;;
24301;SDS011;12421;49.732;20.078;2022-09-29T16:20:44;12.43;;;8.33;;
24301;SDS011;12421;49.732;20.078;2022-09-29T16:30:59;9.53;;;6.87;;
24301;SDS011;12421;49.732;20.078;2022-09-29T16:41:22;15.60;;;7.35;;
24301;SDS011;12421;49.732;20.078;2022-09-29T16:51:32;16.60;;;9.73;;
24301;SDS011;12421;49.732;20.078;2022-09-29T17:01:34;17.35;;;12.05;;
24301;SDS011;12421;49.732;20.078;2022-09-29T17:11:36;21.48;;;14.68;;
24301;SDS011;12421;49.732;20.078;2022-09-29T17:21:39;33.30;;;19.30;;
24301;SDS011;12421;49.732;20.078;2022-09-29T17:31:42;31.90;;;20.77;;
24301;SDS011;12421;49.732;20.078;2022-09-29T17:41:44;31.00;;;20.57;;
24301;SDS011;12421;49.732;20.078;2022-09-29T17:51:47;11.33;;;8.33;;
24301;SDS011;12421;49.732;20.078;2022-09-29T18:01:51;14.55;;;10.63;;
24301;SDS011;12421;49.732;20.078;2022-09-29T18:11:53;13.75;;;10.18;;
24301;SDS011;12421;49.732;20.078;2022-09-29T18:21:56;15.05;;;10.38;;
24301;SDS011;12421;49.732;20.078;2022-09-29T18:31:59;19.05;;;13.03;;
24301;SDS011;12421;49.732;20.078;2022-09-29T18:42:02;17.50;;;12.98;;
24301;SDS011;12421;49.732;20.078;2022-09-29T18:52:04;22.45;;;15.05;;
24301;SDS011;12421;49.732;20.078;2022-09-29T19:02:09;20.97;;;13.48;;
24301;SDS011;12421;49.732;20.078;2022-09-29T19:12:13;18.80;;;11.07;;
24301;SDS011;12421;49.732;20.078;2022-09-29T19:22:15;17.07;;;12.10;;
24301;SDS011;12421;49.732;20.078;2022-09-29T19:32:19;15.85;;;10.85;;
24301;SDS011;12421;49.732;20.078;2022-09-29T19:42:22;12.75;;;10.93;;
24301;SDS011;12421;49.732;20.078;2022-09-29T19:52:24;15.63;;;10.72;;
24301;SDS011;12421;49.732;20.078;2022-09-29T20:02:27;16.05;;;10.43;;
24301;SDS011;12421;49.732;20.078;2022-09-29T20:12:29;15.32;;;10.08;;
24301;SDS011;12421;49.732;20.078;2022-09-29T20:22:33;15.10;;;11.05;;
24301;SDS011;12421;49.732;20.078;2022-09-29T20:32:37;16.57;;;10.82;;
24301;SDS011;12421;49.732;20.078;2022-09-29T20:42:39;17.95;;;10.70;;
24301;SDS011;12421;49.732;20.078;2022-09-29T20:52:41;19.10;;;10.90;;
24301;SDS011;12421;49.732;20.078;2022-09-29T21:02:44;15.35;;;10.20;;
24301;SDS011;12421;49.732;20.078;2022-09-29T21:12:50;12.87;;;8.70;;
24301;SDS011;12421;49.732;20.078;2022-09-29T21:22:52;18.45;;;10.98;;
24301;SDS011;12421;49.732;20.078;2022-09-29T21:32:55;19.15;;;11.80;;
24301;SDS011;12421;49.732;20.078;2022-09-29T21:42:57;17.65;;;11.30;;
24301;SDS011;12421;49.732;20.078;2022-09-29T21:52:59;19.92;;;13.13;;
24301;SDS011;12421;49.732;20.078;2022-09-29T22:03:01;23.65;;;14.38;;
24301;SDS011;12421;49.732;20.078;2022-09-29T22:13:03;20.43;;;13.58;;
24301;SDS011;12421;49.732;20.078;2022-09-29T22:23:05;18.30;;;13.72;;
24301;SDS011;12421;49.732;20.078;2022-09-29T22:33:08;20.25;;;12.98;;
24301;SDS011;12421;49.732;20.078;2022-09-29T22:43:10;27.45;;;14.90;;
24301;SDS011;12421;49.732;20.078;2022-09-29T22:53:13;20.55;;;12.63;;
24301;SDS011;12421;49.732;20.078;2022-09-29T23:03:16;18.23;;;12.23;;
24301;SDS011;12421;49.732;20.078;2022-09-29T23:13:18;16.52;;;11.03;;
24301;SDS011;12421;49.732;20.078;2022-09-29T23:23:21;26.73;;;11.70;;
24301;SDS011;12421;49.732;20.078;2022-09-29T23:33:23;19.87;;;10.37;;
24301;SDS011;12421;49.732;20.078;2022-09-29T23:43:25;17.42;;;10.15;;
24301;SDS011;12421;49.732;20.078;2022-09-29T23:53:28;13.83;;;10.35;;
